createdAt,value
2018-07-14T00:01:36.003Z,19.00
2018-07-14T00:04:04.195Z,19.00
2018-07-14T00:06:32.387Z,19.00
2018-07-14T00:09:00.579Z,19.00
2018-07-14T00:11:28.759Z,18.90
2018-07-14T00:13:56.946Z,18.90
2018-07-14T00:16:25.499Z,18.80
2018-07-14T00:21:21.821Z,18.70
2018-07-14T00:23:50.039Z,18.70
2018-07-14T00:26:18.803Z,18.70
2018-07-14T00:28:47.734Z,18.70
2018-07-14T00:31:16.191Z,18.70
2018-07-14T00:33:44.374Z,18.60
2018-07-14T00:36:12.559Z,18.60
2018-07-14T00:38:40.747Z,18.50
2018-07-14T00:41:08.947Z,18.50
2018-07-14T00:43:37.142Z,18.50
2018-07-14T00:46:05.662Z,18.50
2018-07-14T00:48:33.872Z,18.40
2018-07-14T00:51:03.105Z,18.40
2018-07-14T00:53:31.360Z,18.50
2018-07-14T00:55:59.676Z,18.50
2018-07-14T00:58:27.880Z,18.50
2018-07-14T01:00:56.078Z,18.40
2018-07-14T01:03:24.899Z,18.40
2018-07-14T01:05:53.078Z,18.40
2018-07-14T01:08:21.246Z,18.40
2018-07-14T01:10:49.402Z,18.30
2018-07-14T01:13:17.585Z,18.30
2018-07-14T01:15:45.742Z,18.30
2018-07-14T01:18:13.922Z,18.30
2018-07-14T01:20:42.102Z,18.30
2018-07-14T01:23:10.282Z,18.30
2018-07-14T01:25:38.438Z,18.30
2018-07-14T01:28:06.624Z,18.30
2018-07-14T01:30:34.818Z,18.30
2018-07-14T01:33:03.003Z,18.20
2018-07-14T01:35:31.175Z,18.20
2018-07-14T01:37:59.330Z,18.20
2018-07-14T01:40:27.516Z,18.20
2018-07-14T01:42:55.672Z,18.20
2018-07-14T01:45:23.973Z,18.20
2018-07-14T01:47:52.080Z,18.20
2018-07-14T01:50:20.240Z,18.20
2018-07-14T01:52:48.410Z,18.20
2018-07-14T01:55:16.590Z,18.20
2018-07-14T01:57:44.882Z,18.10
2018-07-14T02:00:13.322Z,18.10
2018-07-14T02:02:41.490Z,18.10
2018-07-14T02:05:09.836Z,18.00
2018-07-14T02:07:38.029Z,18.10
2018-07-14T02:10:06.580Z,18.00
2018-07-14T02:12:34.771Z,18.00
2018-07-14T02:15:02.988Z,18.00
2018-07-14T02:17:31.143Z,18.00
2018-07-14T02:19:59.303Z,17.90
2018-07-14T02:22:27.478Z,17.80
2018-07-14T02:24:55.675Z,17.80
2018-07-14T02:27:23.850Z,17.80
2018-07-14T02:29:52.006Z,17.80
2018-07-14T02:32:20.161Z,17.70
2018-07-14T02:34:48.320Z,17.70
2018-07-14T02:37:16.721Z,17.70
2018-07-14T02:39:44.865Z,17.70
2018-07-14T02:42:13.079Z,17.60
2018-07-14T02:44:41.293Z,17.60
2018-07-14T02:47:09.475Z,17.60
2018-07-14T02:52:05.774Z,17.50
2018-07-14T02:54:34.211Z,17.50
2018-07-14T02:57:02.379Z,17.50
2018-07-14T02:59:30.550Z,17.50
2018-07-14T03:01:58.707Z,17.50
2018-07-14T03:04:27.115Z,17.50
2018-07-14T03:06:55.315Z,17.50
2018-07-14T03:09:23.534Z,17.50
2018-07-14T03:11:51.890Z,17.50
2018-07-14T03:14:20.094Z,17.50
2018-07-14T03:16:48.275Z,17.50
2018-07-14T03:19:16.556Z,17.50
2018-07-14T03:21:44.769Z,17.50
2018-07-14T03:24:13.009Z,17.50
2018-07-14T03:26:41.202Z,17.50
2018-07-14T03:29:09.394Z,17.50
2018-07-14T03:31:37.571Z,17.50
2018-07-14T03:34:05.777Z,17.50
2018-07-14T03:36:33.968Z,17.50
2018-07-14T03:39:02.150Z,17.50
2018-07-14T03:41:30.320Z,17.50
2018-07-14T03:43:58.510Z,17.50
2018-07-14T03:46:26.686Z,17.40
2018-07-14T03:48:54.882Z,17.40
2018-07-14T03:51:23.062Z,17.30
2018-07-14T03:53:51.263Z,17.30
2018-07-14T03:56:19.477Z,17.40
2018-07-14T03:58:47.740Z,17.40
2018-07-14T04:01:15.931Z,17.30
2018-07-14T04:03:44.114Z,17.30
2018-07-14T04:06:12.559Z,17.30
2018-07-14T04:08:40.723Z,17.30
2018-07-14T04:11:08.878Z,17.30
2018-07-14T04:13:37.043Z,17.20
2018-07-14T04:16:05.416Z,17.20
2018-07-14T04:21:01.547Z,17.30
2018-07-14T04:23:29.722Z,17.30
2018-07-14T04:25:57.874Z,17.40
2018-07-14T04:28:26.023Z,17.40
2018-07-14T04:30:54.288Z,17.40
2018-07-14T04:33:22.507Z,17.50
2018-07-14T04:35:50.674Z,17.60
2018-07-14T04:38:18.834Z,17.60
2018-07-14T04:40:46.991Z,17.70
2018-07-14T04:43:15.139Z,17.80
2018-07-14T04:45:43.339Z,17.80
2018-07-14T04:48:11.510Z,18.00
2018-07-14T04:50:39.670Z,18.00
2018-07-14T04:53:07.849Z,18.10
2018-07-14T04:55:36.287Z,18.20
2018-07-14T04:58:04.443Z,18.30
2018-07-14T05:00:32.599Z,18.30
2018-07-14T05:03:01.023Z,18.40
2018-07-14T05:05:29.175Z,18.50
2018-07-14T05:07:57.404Z,18.50
2018-07-14T05:10:25.579Z,18.60
2018-07-14T05:12:53.747Z,18.60
2018-07-14T05:15:21.910Z,18.70
2018-07-14T05:17:50.059Z,18.80
2018-07-14T05:20:18.222Z,18.90
2018-07-14T05:22:46.366Z,19.10
2018-07-14T05:25:14.526Z,19.10
2018-07-14T05:27:42.679Z,19.10
2018-07-14T05:30:10.844Z,19.10
2018-07-14T05:32:39.000Z,19.10
2018-07-14T05:35:07.207Z,19.10
2018-07-14T05:37:35.355Z,19.20
2018-07-14T05:40:03.518Z,19.20
2018-07-14T05:42:31.707Z,19.40
2018-07-14T05:44:59.986Z,19.50
2018-07-14T05:47:28.155Z,19.50
2018-07-14T05:49:56.310Z,19.40
2018-07-14T05:52:24.454Z,19.50
2018-07-14T05:54:52.617Z,19.50
2018-07-14T05:57:20.766Z,19.60
2018-07-14T05:59:49.055Z,19.60
2018-07-14T06:02:17.227Z,19.60
2018-07-14T06:04:45.383Z,19.60
2018-07-14T06:07:13.574Z,19.70
2018-07-14T06:09:41.755Z,19.80
2018-07-14T06:12:09.947Z,19.90
2018-07-14T06:14:38.118Z,20.10
2018-07-14T06:17:06.316Z,20.10
2018-07-14T06:19:34.671Z,20.20
2018-07-14T06:22:02.889Z,20.30
2018-07-14T06:24:31.097Z,20.30
2018-07-14T06:26:59.290Z,20.40
2018-07-14T06:29:27.471Z,20.40
2018-07-14T06:31:55.665Z,20.50
2018-07-14T06:34:23.830Z,20.60
2018-07-14T06:36:52.010Z,20.60
2018-07-14T06:39:20.199Z,20.60
2018-07-14T06:41:48.383Z,20.70
2018-07-14T06:44:16.558Z,20.80
2018-07-14T06:46:44.820Z,20.90
2018-07-14T06:49:13.266Z,20.90
2018-07-14T06:51:41.772Z,21.00
2018-07-14T06:54:10.362Z,21.10
2018-07-14T06:56:38.528Z,21.20
2018-07-14T06:59:06.736Z,21.20
2018-07-14T07:01:34.930Z,21.20
2018-07-14T07:04:03.150Z,21.30
2018-07-14T07:06:31.347Z,21.40
2018-07-14T07:08:59.899Z,21.40
2018-07-14T07:11:28.362Z,21.40
2018-07-14T07:13:57.083Z,21.50
2018-07-14T07:16:25.267Z,21.60
2018-07-14T07:18:53.449Z,21.60
2018-07-14T07:21:21.690Z,21.60
2018-07-14T07:23:49.831Z,21.70
2018-07-14T07:26:18.242Z,21.70
2018-07-14T07:28:46.482Z,21.70
2018-07-14T07:31:14.662Z,21.80
2018-07-14T07:33:42.881Z,21.90
2018-07-14T07:36:11.160Z,22.00
2018-07-14T07:38:39.410Z,22.00
2018-07-14T07:41:07.927Z,22.10
2018-07-14T07:43:36.123Z,22.20
2018-07-14T07:46:04.315Z,22.30
2018-07-14T07:48:33.518Z,22.40
2018-07-14T07:51:01.762Z,22.50
2018-07-14T07:53:29.953Z,22.60
2018-07-14T07:55:58.148Z,22.70
2018-07-14T07:58:26.662Z,22.70
2018-07-14T08:00:54.850Z,22.80
2018-07-14T08:03:23.047Z,22.80
2018-07-14T08:05:51.490Z,22.90
2018-07-14T08:08:19.721Z,22.90
2018-07-14T08:10:47.887Z,23.00
2018-07-14T08:13:16.066Z,23.10
2018-07-14T08:15:44.238Z,23.10
2018-07-14T08:18:12.423Z,23.10
2018-07-14T08:20:40.570Z,23.20
2018-07-14T08:23:08.797Z,23.20
2018-07-14T08:25:36.887Z,23.30
2018-07-14T08:28:05.211Z,23.40
2018-07-14T08:30:33.367Z,23.50
2018-07-14T08:33:01.527Z,23.50
2018-07-14T08:35:29.691Z,23.50
2018-07-14T08:37:57.858Z,23.50
2018-07-14T08:40:26.007Z,23.60
2018-07-14T08:42:54.379Z,23.80
2018-07-14T08:45:22.547Z,23.80
2018-07-14T08:47:50.748Z,23.90
2018-07-14T08:50:18.934Z,23.90
2018-07-14T08:52:47.111Z,23.90
2018-07-14T08:55:15.274Z,24.00
2018-07-14T08:57:43.435Z,24.10
2018-07-14T09:00:11.587Z,24.20
2018-07-14T09:02:40.048Z,24.20
2018-07-14T09:05:08.273Z,24.30
2018-07-14T09:07:36.438Z,24.40
2018-07-14T09:10:05.134Z,24.30
2018-07-14T09:12:33.290Z,24.40
2018-07-14T09:15:01.468Z,24.50
2018-07-14T09:17:29.613Z,24.60
2018-07-14T09:19:57.770Z,24.60
2018-07-14T09:22:26.241Z,24.70
2018-07-14T09:24:54.421Z,24.70
2018-07-14T09:27:22.609Z,24.70
2018-07-14T09:29:50.788Z,24.80
2018-07-14T09:32:18.995Z,24.90
2018-07-14T09:34:47.150Z,25.00
2018-07-14T09:37:15.302Z,25.20
2018-07-14T09:39:43.462Z,25.30
2018-07-14T09:42:11.850Z,25.30
2018-07-14T09:44:40.039Z,25.40
2018-07-14T09:47:08.266Z,25.50
2018-07-14T09:49:36.422Z,25.60
2018-07-14T09:54:32.587Z,25.70
2018-07-14T09:57:00.734Z,25.80
2018-07-14T09:59:28.907Z,25.90
2018-07-14T10:01:57.598Z,26.10
2018-07-14T10:04:25.800Z,26.20
2018-07-14T10:06:54.103Z,26.30
2018-07-14T10:09:22.266Z,26.40
2018-07-14T10:11:50.638Z,26.50
2018-07-14T10:14:19.790Z,26.60
2018-07-14T10:16:47.947Z,26.60
2018-07-14T10:19:16.121Z,26.60
2018-07-14T10:21:44.273Z,26.60
2018-07-14T10:24:12.707Z,26.60
2018-07-14T10:26:40.863Z,26.50
2018-07-14T10:29:09.060Z,26.60
2018-07-14T10:31:37.419Z,26.60
2018-07-14T10:34:06.145Z,26.60
2018-07-14T10:36:34.206Z,26.40
2018-07-14T10:39:02.371Z,26.40
2018-07-14T10:41:30.521Z,26.50
2018-07-14T10:43:58.736Z,26.50
2018-07-14T10:46:26.916Z,26.50
2018-07-14T10:48:55.078Z,26.60
2018-07-14T10:51:23.472Z,26.70
2018-07-14T10:53:51.622Z,26.70
2018-07-14T10:56:20.080Z,26.80
2018-07-14T10:58:48.457Z,26.80
2018-07-14T11:01:16.604Z,26.90
2018-07-14T11:03:44.763Z,26.90
2018-07-14T11:06:12.926Z,26.90
2018-07-14T11:08:41.087Z,27.00
2018-07-14T11:11:09.511Z,27.10
2018-07-14T11:13:37.667Z,27.10
2018-07-14T11:16:06.095Z,27.10
2018-07-14T11:18:34.370Z,27.20
2018-07-14T11:21:02.797Z,27.30
2018-07-14T11:23:30.983Z,27.30
2018-07-14T11:25:59.163Z,27.30
2018-07-14T11:28:27.370Z,27.30
2018-07-14T11:30:55.550Z,27.40
2018-07-14T11:33:23.719Z,27.60
2018-07-14T11:35:51.870Z,27.70
2018-07-14T11:38:20.035Z,27.60
2018-07-14T11:40:48.188Z,27.60
2018-07-14T11:43:16.339Z,27.70
2018-07-14T11:45:44.518Z,27.70
2018-07-14T11:48:12.694Z,27.90
2018-07-14T11:50:40.853Z,27.90
2018-07-14T11:53:09.014Z,28.00
2018-07-14T11:55:37.182Z,28.00
2018-07-14T11:58:05.379Z,28.10
2018-07-14T12:03:01.511Z,28.00
2018-07-14T12:07:57.699Z,28.20
2018-07-14T12:10:25.923Z,28.30
2018-07-14T12:12:54.155Z,28.50
2018-07-14T12:15:22.354Z,28.50
2018-07-14T12:17:50.551Z,28.60
2018-07-14T12:22:47.235Z,28.60
2018-07-14T12:25:15.531Z,28.50
2018-07-14T12:27:43.714Z,28.40
2018-07-14T12:30:11.976Z,28.20
2018-07-14T12:32:40.134Z,28.00
2018-07-14T12:35:08.582Z,27.90
2018-07-14T12:37:36.769Z,27.70
2018-07-14T12:40:05.027Z,27.90
2018-07-14T12:42:33.214Z,28.00
2018-07-14T12:45:01.703Z,28.00
2018-07-14T12:47:30.794Z,28.00
2018-07-14T12:49:59.024Z,28.00
2018-07-14T12:52:27.259Z,28.10
2018-07-14T12:54:55.447Z,28.20
2018-07-14T12:57:23.631Z,28.20
2018-07-14T12:59:52.071Z,28.30
2018-07-14T13:02:20.759Z,28.20
2018-07-14T13:04:48.979Z,28.30
2018-07-14T13:07:17.295Z,28.30
2018-07-14T13:09:45.473Z,28.30
2018-07-14T13:12:13.634Z,28.40
2018-07-14T13:14:41.795Z,28.50
2018-07-14T13:17:10.031Z,28.50
2018-07-14T13:19:38.117Z,28.60
2018-07-14T13:22:06.279Z,28.80
2018-07-14T13:24:35.215Z,28.80
2018-07-14T13:27:03.401Z,28.70
2018-07-14T13:29:31.593Z,28.50
2018-07-14T13:31:59.870Z,28.40
2018-07-14T13:34:28.043Z,28.30
2018-07-14T13:36:56.208Z,28.30
2018-07-14T13:39:24.431Z,28.20
2018-07-14T13:41:52.594Z,28.00
2018-07-14T13:44:20.783Z,28.00
2018-07-14T13:46:48.955Z,27.90
2018-07-14T13:49:17.102Z,28.00
2018-07-14T13:51:45.259Z,28.10
2018-07-14T13:54:13.414Z,28.30
2018-07-14T13:56:41.571Z,28.40
2018-07-14T13:59:09.722Z,28.50
2018-07-14T14:01:37.873Z,28.50
2018-07-14T14:04:06.206Z,28.50
2018-07-14T14:06:34.406Z,28.70
2018-07-14T14:09:02.626Z,28.70
2018-07-14T14:13:58.832Z,28.90
2018-07-14T14:16:27.037Z,29.00
2018-07-14T14:21:23.494Z,28.90
2018-07-14T14:23:51.732Z,29.00
2018-07-14T14:26:20.243Z,28.90
2018-07-14T14:28:48.599Z,28.90
2018-07-14T14:31:16.827Z,28.80
2018-07-14T14:33:45.011Z,28.60
2018-07-14T14:36:13.188Z,28.50
2018-07-14T14:38:41.385Z,28.40
2018-07-14T14:41:09.573Z,28.30
2018-07-14T14:43:37.769Z,28.20
2018-07-14T14:46:06.018Z,28.20
2018-07-14T14:48:34.214Z,28.00
2018-07-14T14:51:02.419Z,27.90
2018-07-14T14:53:30.649Z,27.80
2018-07-14T14:55:58.908Z,27.80
2018-07-14T14:58:27.055Z,27.70
2018-07-14T15:00:55.306Z,27.60
2018-07-14T15:03:23.503Z,27.60
2018-07-14T15:05:52.003Z,27.50
2018-07-14T15:08:20.194Z,27.50
2018-07-14T15:10:48.370Z,27.50
2018-07-14T15:13:16.583Z,27.40
2018-07-14T15:15:44.777Z,27.40
2018-07-14T15:18:13.031Z,27.30
2018-07-14T15:20:41.203Z,27.10
2018-07-14T15:23:09.587Z,27.00
2018-07-14T15:25:37.784Z,27.00
2018-07-14T15:28:05.986Z,27.00
2018-07-14T15:30:34.240Z,26.90
2018-07-14T15:33:02.669Z,26.80
2018-07-14T15:35:30.680Z,26.60
2018-07-14T15:37:58.914Z,26.30
2018-07-14T15:40:27.053Z,25.80
2018-07-14T15:42:55.235Z,25.30
2018-07-14T15:45:23.430Z,25.00
2018-07-14T15:47:51.612Z,24.90
2018-07-14T15:50:19.795Z,24.90
2018-07-14T15:52:48.305Z,24.80
2018-07-14T15:55:16.491Z,24.80
2018-07-14T15:57:44.680Z,24.70
2018-07-14T16:00:12.880Z,24.70
2018-07-14T16:02:41.273Z,24.50
2018-07-14T16:05:09.471Z,24.40
2018-07-14T16:07:37.634Z,24.00
2018-07-14T16:10:05.841Z,23.60
2018-07-14T16:12:34.067Z,23.30
2018-07-14T16:15:02.254Z,23.30
2018-07-14T16:17:30.410Z,23.50
2018-07-14T16:19:58.802Z,23.60
2018-07-14T16:22:26.981Z,23.70
2018-07-14T16:24:55.169Z,23.70
2018-07-14T16:27:23.350Z,23.70
2018-07-14T16:29:52.066Z,23.60
2018-07-14T16:32:20.248Z,23.50
2018-07-14T16:34:48.463Z,23.40
2018-07-14T16:37:16.779Z,23.40
2018-07-14T16:39:45.273Z,23.40
2018-07-14T16:42:13.659Z,23.40
2018-07-14T16:44:41.989Z,23.40
2018-07-14T16:47:10.242Z,23.50
2018-07-14T16:49:38.490Z,23.60
2018-07-14T16:52:07.296Z,23.80
2018-07-14T16:54:35.502Z,23.70
2018-07-14T16:57:04.368Z,23.60
2018-07-14T16:59:32.537Z,23.60
2018-07-14T17:02:00.799Z,23.60
2018-07-14T17:04:29.015Z,23.50
2018-07-14T17:06:57.185Z,23.60
2018-07-14T17:09:25.371Z,23.70
2018-07-14T17:11:53.550Z,23.70
2018-07-14T17:14:22.022Z,23.70
2018-07-14T17:16:50.218Z,23.60
2018-07-14T17:19:18.394Z,23.60
2018-07-14T17:21:46.591Z,23.80
2018-07-14T17:24:15.034Z,23.70
2018-07-14T17:29:11.208Z,23.60
2018-07-14T17:31:39.440Z,23.50
2018-07-14T17:34:07.638Z,23.50
2018-07-14T17:36:35.831Z,23.60
2018-07-14T17:39:05.188Z,23.50
2018-07-14T17:41:33.398Z,23.60
2018-07-14T17:44:01.600Z,23.60
2018-07-14T17:46:30.034Z,23.60
2018-07-14T17:48:59.108Z,23.50
2018-07-14T17:51:27.317Z,23.50
2018-07-14T17:53:55.488Z,23.40
2018-07-14T17:56:23.670Z,23.40
2018-07-14T17:58:51.914Z,23.50
2018-07-14T18:01:20.048Z,23.50
2018-07-14T18:03:48.272Z,23.50
2018-07-14T18:06:16.523Z,23.40
2018-07-14T18:08:44.698Z,23.40
2018-07-14T18:11:12.904Z,23.40
2018-07-14T18:13:41.066Z,23.30
2018-07-14T18:16:09.248Z,23.40
2018-07-14T18:18:37.394Z,23.30
2018-07-14T18:21:05.839Z,23.30
2018-07-14T18:23:33.997Z,23.20
2018-07-14T18:26:02.207Z,23.20
2018-07-14T18:28:30.483Z,23.10
2018-07-14T18:30:58.649Z,23.00
2018-07-14T18:33:27.054Z,22.90
2018-07-14T18:35:55.205Z,22.80
2018-07-14T18:38:23.374Z,22.70
2018-07-14T18:40:51.545Z,22.70
2018-07-14T18:43:19.765Z,22.60
2018-07-14T18:45:47.936Z,22.60
2018-07-14T18:48:16.111Z,22.50
2018-07-14T18:50:44.267Z,22.50
2018-07-14T18:53:12.722Z,22.40
2018-07-14T18:55:40.875Z,22.30
2018-07-14T18:58:09.042Z,22.30
2018-07-14T19:00:37.230Z,22.20
2018-07-14T19:03:05.522Z,22.20
2018-07-14T19:05:33.675Z,22.10
2018-07-14T19:08:01.843Z,22.00
2018-07-14T19:10:29.989Z,21.90
2018-07-14T19:12:58.227Z,21.90
2018-07-14T19:15:26.421Z,21.90
2018-07-14T19:17:54.594Z,21.80
2018-07-14T19:20:22.784Z,21.80
2018-07-14T19:22:50.966Z,21.70
2018-07-14T19:25:19.137Z,21.70
2018-07-14T19:27:47.363Z,21.70
2018-07-14T19:30:15.845Z,21.60
2018-07-14T19:32:43.999Z,21.60
2018-07-14T19:35:12.159Z,21.50
2018-07-14T19:37:40.314Z,21.50
2018-07-14T19:40:08.470Z,21.40
2018-07-14T19:42:36.674Z,21.40
2018-07-14T19:45:04.881Z,21.30
2018-07-14T19:47:33.051Z,21.20
2018-07-14T19:50:01.215Z,21.20
2018-07-14T19:52:29.375Z,21.20
2018-07-14T19:54:57.543Z,21.10
2018-07-14T19:57:25.707Z,21.10
2018-07-14T19:59:53.887Z,21.10
2018-07-14T20:02:22.080Z,21.00
2018-07-14T20:07:18.203Z,20.90
2018-07-14T20:09:46.363Z,20.90
2018-07-14T20:12:14.547Z,20.90
2018-07-14T20:14:42.738Z,20.80
2018-07-14T20:17:10.885Z,20.80
2018-07-14T20:19:39.091Z,20.80
2018-07-14T20:22:07.218Z,20.70
2018-07-14T20:24:35.386Z,20.70
2018-07-14T20:27:03.563Z,20.70
2018-07-14T20:29:31.978Z,20.60
2018-07-14T20:32:00.374Z,20.60
2018-07-14T20:34:29.045Z,20.60
2018-07-14T20:36:57.765Z,20.50
2018-07-14T20:39:26.632Z,20.50
2018-07-14T20:41:55.789Z,20.40
2018-07-14T20:44:25.544Z,20.40
2018-07-14T20:46:54.188Z,20.40
2018-07-14T20:49:22.471Z,20.40
2018-07-14T20:51:54.817Z,20.30
2018-07-14T20:54:26.484Z,20.30
2018-07-14T20:56:56.631Z,20.30
2018-07-14T20:59:24.915Z,20.20
2018-07-14T21:01:53.072Z,20.20
2018-07-14T21:06:49.255Z,20.20
2018-07-14T21:09:17.718Z,20.20
2018-07-14T21:11:45.916Z,20.10
2018-07-14T21:14:14.194Z,20.10
2018-07-14T21:16:42.387Z,20.00
2018-07-14T21:19:10.577Z,20.00
2018-07-14T21:21:38.768Z,20.00
2018-07-14T21:24:07.012Z,20.00
2018-07-14T21:26:35.311Z,19.90
2018-07-14T21:29:03.644Z,19.90
2018-07-14T21:31:31.866Z,19.90
2018-07-14T21:34:00.095Z,19.90
2018-07-14T21:36:28.285Z,19.80
2018-07-14T21:38:56.500Z,19.80
2018-07-14T21:41:24.966Z,19.80
2018-07-14T21:43:53.439Z,19.70
2018-07-14T21:46:21.635Z,19.70
2018-07-14T21:48:49.830Z,19.70
2018-07-14T21:51:18.010Z,19.70
2018-07-14T21:53:46.349Z,19.60
2018-07-14T21:56:14.633Z,19.60
2018-07-14T21:58:42.807Z,19.60
2018-07-14T22:01:16.446Z,19.50
2018-07-14T22:03:44.635Z,19.60
2018-07-14T22:06:12.856Z,19.50
2018-07-14T22:08:41.059Z,19.50
2018-07-14T22:11:09.263Z,19.40
2018-07-14T22:16:05.440Z,19.30
2018-07-14T22:18:33.595Z,19.30
2018-07-14T22:21:01.807Z,19.30
2018-07-14T22:23:29.967Z,19.20
2018-07-14T22:25:58.126Z,19.20
2018-07-14T22:28:26.285Z,19.20
2018-07-14T22:30:54.470Z,19.10
2018-07-14T22:33:22.619Z,19.10
2018-07-14T22:35:50.924Z,19.10
2018-07-14T22:38:19.070Z,19.00
2018-07-14T22:40:47.235Z,19.00
2018-07-14T22:43:15.418Z,19.00
2018-07-14T22:45:43.590Z,18.90
2018-07-14T22:48:12.127Z,18.90
2018-07-14T22:50:40.339Z,18.90
2018-07-14T22:53:08.652Z,18.90
2018-07-14T22:55:36.843Z,18.80
2018-07-14T22:58:05.027Z,18.80
2018-07-14T23:00:33.438Z,18.80
2018-07-14T23:03:01.609Z,18.80
2018-07-14T23:05:29.773Z,18.80
2018-07-14T23:07:58.500Z,18.80
2018-07-14T23:10:26.659Z,18.70
2018-07-14T23:12:54.824Z,18.70
2018-07-14T23:15:23.111Z,18.70
2018-07-14T23:17:51.262Z,18.70
2018-07-14T23:20:19.426Z,18.60
2018-07-14T23:22:47.610Z,18.50
2018-07-14T23:25:15.847Z,18.50
2018-07-14T23:27:44.071Z,18.50
2018-07-14T23:30:12.268Z,18.50
2018-07-14T23:32:40.465Z,18.40
2018-07-14T23:35:08.619Z,18.40
2018-07-14T23:37:36.782Z,18.40
2018-07-14T23:40:04.971Z,18.50
2018-07-14T23:42:33.156Z,18.50
2018-07-14T23:45:01.311Z,18.40
2018-07-14T23:47:29.824Z,18.40
2018-07-14T23:49:57.922Z,18.40
2018-07-14T23:52:26.091Z,18.30
2018-07-14T23:54:54.252Z,18.30
2018-07-14T23:57:22.415Z,18.20
